• Join FlightAware (Why Join?)
  • Login
  • US Flag 
Trick or treat! (Boo!!) 
02:40PM EDT


 

Airport Tracker/Info


-or-


 

Live Flight TrackerFlight Track Log ✈ SWA3206 ✈ 13-May-2013 ✈ KPHL - KMDW

Flight Track Log - Related Links

Times and Time Zones

All times are in EDT time to prevent confusion due to time zone crossing. See the SWA3206 flight status page for this flight to view local times or setup timezone preferences in your user account.

Time Position Orientation Groundspeed Altitude Reporting Facility
EDT Latitude Longitude Course Direction KTS MPH feet Rate Location/Type
11:36AM 39.8667 -75.2667 247° West 145 167 1,100  Level Philadelphia TRACON
11:37AM 39.8500 -75.3167 247° West 188 216 2,400 2,400 Climbing Philadelphia TRACON
11:38AM 39.8500 -75.3667 270° West 214 246 5,200 3,000 Climbing Philadelphia TRACON
11:39AM 39.9000 -75.4167 323° Northwest 263 303 8,100 2,760 Climbing Philadelphia TRACON
11:40AM 39.9667 -75.4500 339° North 296 341 10,800 1,740 Climbing Philadelphia TRACON
11:41AM 40.1242 -75.5214 341° North 364 419 13,000 1,320 Climbing New York Center
11:42AM 40.2122 -75.5600 341° North 362 417 14,500 1,860 Climbing New York Center
11:43AM 40.2814 -75.6492 315° West 348 400 16,900 2,040 Climbing New York Center
11:44AM 40.3522 -75.7550 311° West 353 406 18,600 1,860 Climbing New York Center
11:45AM 40.4150 -75.8442 313° West 359 413 20,700 2,340 Climbing New York Center
11:46AM 40.4514 -75.9694 291° West 364 419 23,300 2,580 Climbing New York Center
11:47AM 40.4706 -76.0992 281° West 359 413 25,900 2,280 Climbing New York Center
11:48AM 40.4917 -76.2319 282° West 366 421 28,000 1,560 Climbing New York Center
11:49AM 40.5125 -76.3619 282° West 371 427 29,100 1,260 Climbing New York Center
11:50AM 40.5331 -76.4972 281° West 376 433 30,500 960 Climbing New York Center
11:51AM 40.5617 -76.6392 285° West 382 440 31,000 240 Climbing New York Center
11:52AM 40.6003 -76.7844 289° West 404 465 31,000  Level New York Center
11:53AM 40.6386 -76.9275 289° West 418 481 31,000 780 Level New York Center
11:54AM 40.6769 -77.0706 290° West 423 487 32,600 1,380 Climbing New York Center
11:55AM 40.7169 -77.2192 290° West 423 487 33,800 1,260 Climbing New York Center
11:57AM 40.7814 -77.4706 289° West 444 511 36,000 780 Climbing Cleveland Center
11:58AM 40.8186 -77.6144 289° West 430 495 36,000  Level Cleveland Center
11:59AM 40.8558 -77.7608 289° West 430 495 36,000  Level Cleveland Center
12:00PM 40.8972 -77.9239 289° West 425 489 36,000  Level Cleveland Center
12:01PM 40.9233 -78.0686 283° West 414 476 36,000  Level Cleveland Center
12:02PM 40.9433 -78.2192 280° West 414 476 36,000  Level Cleveland Center
12:03PM 40.9631 -78.3669 280° West 414 476 36,000  Level Cleveland Center
12:04PM 40.9825 -78.5147 280° West 414 476 36,000  Level Cleveland Center
12:05PM 40.9994 -78.6628 279° West 414 476 36,000  Level Cleveland Center
12:06PM 41.0167 -78.8136 279° West 409 471 36,000  Level Cleveland Center
12:07PM 41.0333 -78.9617 279° West 409 471 36,000  Level Cleveland Center
12:08PM 41.0522 -79.1128 279° West 409 471 36,000  Level Cleveland Center
12:09PM 41.0686 -79.2639 278° West 409 471 36,000  Level Cleveland Center
12:10PM 41.0847 -79.4178 278° West 414 476 36,000  Level Cleveland Center
12:11PM 41.1028 -79.5692 279° West 414 476 36,000  Level Cleveland Center
12:12PM 41.1186 -79.7178 278° West 414 476 36,000  Level Cleveland Center
12:13PM 41.1322 -79.8608 277° West 423 487 36,000  Level Cleveland Center
12:14PM 41.1519 -80.0122 280° West 423 487 36,000  Level Cleveland Center
12:15PM 41.1672 -80.1667 278° West 423 487 36,000  Level Cleveland Center
12:16PM 41.1822 -80.3183 278° West 423 487 36,000  Level Cleveland Center
12:17PM 41.1992 -80.4756 278° West 423 487 36,000  Level Cleveland Center
12:18PM 41.2136 -80.6272 277° West 423 487 36,000  Level Cleveland Center
12:19PM 41.2303 -80.7958 278° West 428 493 36,000  Level Cleveland Center
12:20PM 41.2444 -80.9506 277° West 422 486 36,000  Level Cleveland Center
12:21PM 41.2606 -81.1053 278° West 427 491 36,000  Level Cleveland Center
12:22PM 41.2742 -81.2572 277° West 422 486 36,000  Level Cleveland Center
12:23PM 41.2858 -81.3844 277° West 427 491 36,000  Level Cleveland Center
12:24PM 41.3056 -81.5506 279° West 427 491 36,000  Level Cleveland Center
12:25PM 41.3186 -81.7083 276° West 427 491 36,000  Level Cleveland Center
12:26PM 41.3317 -81.8633 276° West 427 491 36,000  Level Cleveland Center
12:27PM 41.3464 -82.0158 277° West 427 491 36,000  Level Cleveland Center
12:28PM 41.3586 -82.1958 275° West 427 491 36,000  Level Cleveland Center
12:29PM 41.3689 -82.3539 275° West 433 498 36,000  Level Cleveland Center
12:30PM 41.3767 -82.5092 274° West 438 504 36,000  Level Cleveland Center
12:31PM 41.3864 -82.6728 275° West 438 504 36,000  Level Cleveland Center
12:32PM 41.3939 -82.8306 274° West 445 512 36,000  Level Cleveland Center
12:33PM 41.4031 -82.9889 274° West 438 504 36,000  Level Cleveland Center
12:34PM 41.4122 -83.1469 274° West 438 504 36,000  Level Cleveland Center
12:35PM 41.4189 -83.3022 273° West 433 498 36,000  Level Cleveland Center
12:36PM 41.4256 -83.4578 273° West 433 498 36,000  Level Cleveland Center
12:37PM 41.4342 -83.6133 274° West 428 493 36,000  Level Cleveland Center
12:38PM 41.4408 -83.7494 274° West 423 487 36,000  Level Cleveland Center
12:39PM 41.4469 -83.9047 273° West 423 487 36,000  Level Cleveland Center
12:40PM 41.4528 -84.0603 273° West 423 487 36,000  Level Cleveland Center
12:41PM 41.4625 -84.2161 275° West 423 487 36,000 -1,500 Level Cleveland Center
12:42PM 41.4717 -84.3828 274° West 423 487 33,100 -2,280 Descending Cleveland Center
12:44PM 41.4783 -84.6128 272° West 397 457 30,000 -1,140 Descending Chicago Center
12:45PM 41.4850 -84.7636 273° West 406 467 30,000  Level Chicago Center
12:46PM 41.4919 -84.9517 273° West 422 486 30,000 -60 Level Chicago Center
12:47PM 41.4969 -85.1086 272° West 421 484 29,900 -1,260 Descending Chicago Center
12:48PM 41.5025 -85.2667 273° West 424 488 27,500 -2,520 Descending Chicago Center
12:49PM 41.5069 -85.4189 272° West 412 474 24,800 -1,980 Descending Chicago Center
12:50PM 41.5117 -85.5667 272° West 391 450 23,500 -1,140 Descending Chicago Center
12:51PM 41.5156 -85.7139 272° West 393 452 22,500 -1,080 Descending Chicago Center
12:52PM 41.5203 -85.8603 273° West 391 450 21,300 -1,680 Descending Chicago Center
12:53PM 41.5239 -86.0036 272° West 389 448 19,100 -2,640 Descending Chicago Center
12:54PM 41.5244 -86.1692 270° West 373 429 15,900 -3,000 Descending Chicago Center
12:55PM 41.5228 -86.3047 269° West 367 422 12,900 -2,400 Descending Chicago Center
12:56PM 41.5219 -86.4367 270° West 357 411 11,000 -1,260 Descending Chicago Center
12:57PM 41.5206 -86.5592 269° West 333 383 10,400 -540 Descending Chicago Center
12:58PM 41.5200 -86.6814 270° West 329 379 10,000 -240 Descending Chicago Center
12:59PM 41.5197 -86.8125 270° West 324 373 10,000 -480 Level Chicago Center
01:00PM 41.5189 -86.9108 269° West 267 307 9,100 -1,080 Descending Chicago Center
01:01PM 41.5169 -87.0061 268° West 258 297 7,800 -1,500 Descending Chicago Center
01:02PM 41.5200 -87.1186 272° West 254 292 6,100 -1,260 Descending Chicago Center
01:03PM 41.5333 -87.1500 300° West 249 287 6,000 -540 Descending Chicago TRACON
01:04PM 41.5500 -87.2333 285° West 252 290 5,400 -840 Descending Chicago TRACON
01:05PM 41.5833 -87.3333 294° West 253 291 4,400 -720 Descending Chicago TRACON
01:06PM 41.6167 -87.4167 298° West 255 293 4,000 -240 Descending Chicago TRACON
01:07PM 41.6275 -87.4611 288° West 254 292 4,000  Level Chicago Center
01:08PM 41.6567 -87.5608 291° West 249 287 4,000  Level Chicago Center
01:09PM 41.6914 -87.6200 308° West 230 265 4,000 -540 Level Chicago Center
01:10PM 41.7256 -87.6694 313° West 203 234 2,900 -1,080 Descending Chicago Center
01:11PM 41.7525 -87.7067 314° West 172 198 1,800 -960 Descending Chicago Center
01:12PM 41.7803 -87.7450 314° West 154 177 1,000 -780 Descending Chicago Center
01:14PM 41.7833 -87.7500 334° Northwest  Level FlightAware Approximate